Time;durP1;ratioP1;P1;durP2;ratioP2;P2;SDS_P1;SDS_P2;PMS_P1;PMS_P2;Temp;Humidity;BMP_temperature;BMP_pressure;BME280_temperature;BME280_humidity;BME280_pressure;Samples;Min_cycle;Max_cycle;Signal;HPM_P1;HPM_P2
2022/08/09 00:00:58;;;;;;;4.15;2.45;;;;;;;;;;5027835;28;20666;-65
2022/08/09 00:03:23;;;;;;;4.15;2.10;;;;;;;;;;5027690;28;20152;-65
2022/08/09 00:05:49;;;;;;;4.30;2.60;;;;;;;;;;5027791;28;20034;-65
2022/08/09 00:08:14;;;;;;;3.08;2.13;;;;;;;;;;5043475;28;20625;-65
2022/08/09 00:10:40;;;;;;;3.72;2.85;;;;;;;;;;5028772;28;20064;-65
2022/08/09 00:13:07;;;;;;;4.90;2.50;;;;;;;;;;5033625;28;20033;-65
2022/08/09 00:15:32;;;;;;;3.70;2.33;;;;;;;;;;5039082;28;20036;-65
2022/08/09 00:17:58;;;;;;;4.47;2.15;;;;;;;;;;5027554;28;20419;-65
2022/08/09 00:20:23;;;;;;;7.00;2.90;;;;;;;;;;5023645;28;20191;-65
2022/08/09 00:22:49;;;;;;;4.57;2.65;;;;;;;;;;5009412;28;20029;-65
2022/08/09 00:25:15;;;;;;;3.63;2.20;;;;;;;;;;5008936;28;20060;-65
2022/08/09 00:27:40;;;;;;;3.88;2.50;;;;;;;;;;5009507;28;20084;-65
2022/08/09 00:30:06;;;;;;;3.38;2.20;;;;;;;;;;5030934;28;20055;-65
2022/08/09 00:32:31;;;;;;;4.97;2.92;;;;;;;;;;5028580;28;20243;-65
2022/08/09 00:34:57;;;;;;;4.10;2.45;;;;;;;;;;5033493;28;20496;-65
2022/08/09 00:37:22;;;;;;;4.07;2.50;;;;;;;;;;5030582;28;20025;-65
2022/08/09 00:39:48;;;;;;;4.85;2.80;;;;;;;;;;5040514;28;20045;-65
2022/08/09 00:42:13;;;;;;;3.78;2.55;;;;;;;;;;5031651;28;20073;-65
2022/08/09 00:44:39;;;;;;;7.13;2.50;;;;;;;;;;5022090;28;20033;-65
2022/08/09 00:47:04;;;;;;;3.58;2.70;;;;;;;;;;5025640;28;20571;-65
2022/08/09 00:49:31;;;;;;;4.15;2.45;;;;;;;;;;5025511;28;20027;-65
2022/08/09 00:51:56;;;;;;;3.92;2.55;;;;;;;;;;5032219;28;20502;-65
2022/08/09 00:54:23;;;;;;;3.15;2.60;;;;;;;;;;5029486;28;20052;-65
2022/08/09 00:56:48;;;;;;;3.90;2.50;;;;;;;;;;5039297;28;20120;-65
2022/08/09 00:59:14;;;;;;;5.80;2.60;;;;;;;;;;5030262;28;20116;-65
2022/08/09 01:01:40;;;;;;;4.18;2.65;;;;;;;;;;5025282;28;20057;-65
2022/08/09 01:04:24;;;;;;;4.00;2.55;;;;;;;;;;5027874;28;20033;-65
2022/08/09 01:07:06;;;;;;;;;;;;;;;;;;5026635;28;20506;-65
2022/08/09 01:09:38;;;;;;;6.32;3.10;;;;;;;;;;5028655;28;19971;-65
2022/08/09 01:12:15;;;;;;;5.65;3.25;;;;;;;;;;5026506;28;20041;-65
2022/08/09 01:14:48;;;;;;;4.28;2.70;;;;;;;;;;5026629;28;20033;-65
2022/08/09 01:17:20;;;;;;;5.35;3.05;;;;;;;;;;5023445;28;20033;-65
2022/08/09 01:19:59;;;;;;;4.72;2.70;;;;;;;;;;5021040;28;20471;-65
2022/08/09 01:22:58;;;;;;;3.85;2.63;;;;;;;;;;5024987;28;20045;-65
2022/08/09 01:25:41;;;;;;;4.78;2.80;;;;;;;;;;5022041;28;20132;-65
2022/08/09 01:28:09;;;;;;;4.20;2.90;;;;;;;;;;5027153;28;20041;-65
2022/08/09 01:30:36;;;;;;;4.72;3.03;;;;;;;;;;5026663;28;20144;-64
2022/08/09 01:33:05;;;;;;;5.72;2.92;;;;;;;;;;5026353;28;20045;-65
2022/08/09 01:35:38;;;;;;;6.53;3.20;;;;;;;;;;5031634;28;20042;-65
2022/08/09 01:38:09;;;;;;;4.05;2.70;;;;;;;;;;5026864;28;20026;-65
2022/08/09 01:40:35;;;;;;;5.05;2.60;;;;;;;;;;5031876;28;20032;-65
2022/08/09 01:43:03;;;;;;;3.65;2.80;;;;;;;;;;5032194;28;20049;-65
2022/08/09 01:45:29;;;;;;;4.15;3.00;;;;;;;;;;5027692;28;20041;-65
2022/08/09 01:47:57;;;;;;;7.53;3.10;;;;;;;;;;5027184;28;20029;-65
2022/08/09 01:50:24;;;;;;;5.60;3.22;;;;;;;;;;5024561;28;20040;-65
2022/08/09 01:52:51;;;;;;;4.20;2.85;;;;;;;;;;5023586;28;20032;-65
2022/08/09 01:55:17;;;;;;;10.40;3.58;;;;;;;;;;5023461;28;20136;-65
2022/08/09 01:57:45;;;;;;;6.18;3.05;;;;;;;;;;5024399;28;20088;-65
2022/08/09 02:00:12;;;;;;;4.25;3.00;;;;;;;;;;5025327;28;20029;-65
2022/08/09 02:02:42;;;;;;;4.97;3.30;;;;;;;;;;5023625;28;20129;-65
2022/08/09 02:05:10;;;;;;;9.27;3.15;;;;;;;;;;5025619;28;20052;-65
2022/08/09 02:07:40;;;;;;;5.28;3.17;;;;;;;;;;5029915;28;20091;-65
2022/08/09 02:10:14;;;;;;;6.00;3.03;;;;;;;;;;5022029;28;20039;-65
2022/08/09 02:12:41;;;;;;;5.75;3.75;;;;;;;;;;5021407;28;20120;-65
2022/08/09 02:15:08;;;;;;;7.78;3.30;;;;;;;;;;5015277;28;20116;-65
2022/08/09 02:17:35;;;;;;;5.90;3.30;;;;;;;;;;5028410;28;20029;-65
2022/08/09 02:20:00;;;;;;;6.55;3.00;;;;;;;;;;5020102;28;20030;-65
2022/08/09 02:22:35;;;;;;;5.68;3.58;;;;;;;;;;5032503;28;20029;-65
2022/08/09 02:25:05;;;;;;;7.80;3.53;;;;;;;;;;5023703;28;20458;-65
2022/08/09 02:27:33;;;;;;;5.50;3.40;;;;;;;;;;5021398;28;20049;-65
2022/08/09 02:30:00;;;;;;;5.55;3.20;;;;;;;;;;5032624;28;20090;-65
2022/08/09 02:32:27;;;;;;;5.70;3.25;;;;;;;;;;5024801;28;20402;-65
2022/08/09 02:35:01;;;;;;;4.32;3.10;;;;;;;;;;5031380;28;20146;-65
2022/08/09 02:37:29;;;;;;;5.82;3.30;;;;;;;;;;5025598;28;20041;-65
2022/08/09 02:39:59;;;;;;;6.97;3.35;;;;;;;;;;5029219;28;20650;-65
2022/08/09 02:42:29;;;;;;;6.18;3.67;;;;;;;;;;5029198;28;20052;-65
2022/08/09 02:45:01;;;;;;;8.77;3.42;;;;;;;;;;5027793;28;20549;-65
2022/08/09 02:47:28;;;;;;;5.35;3.25;;;;;;;;;;5026672;28;20044;-65
2022/08/09 02:50:01;;;;;;;5.85;3.60;;;;;;;;;;5012648;28;20064;-65
2022/08/09 02:52:28;;;;;;;;;;;;;;;;;;5012967;28;20507;-65
2022/08/09 02:54:54;;;;;;;7.80;3.35;;;;;;;;;;5027175;28;19929;-65
2022/08/09 02:57:21;;;;;;;5.28;3.35;;;;;;;;;;5029131;28;20396;-65
2022/08/09 02:59:48;;;;;;;6.72;3.30;;;;;;;;;;5027095;28;20686;-65
2022/08/09 03:02:15;;;;;;;6.85;4.05;;;;;;;;;;5026250;28;20040;-65
2022/08/09 03:04:42;;;;;;;8.30;4.00;;;;;;;;;;5019132;28;20564;-65
2022/08/09 03:07:08;;;;;;;8.10;3.90;;;;;;;;;;5030640;28;20510;-65
2022/08/09 03:09:35;;;;;;;5.70;3.38;;;;;;;;;;5028067;28;20037;-65
2022/08/09 03:12:01;;;;;;;6.93;3.72;;;;;;;;;;5018781;28;20133;-65
2022/08/09 03:14:28;;;;;;;6.18;3.65;;;;;;;;;;5031747;28;20034;-65
2022/08/09 03:16:54;;;;;;;6.45;4.07;;;;;;;;;;5032926;28;20032;-65
2022/08/09 03:19:21;;;;;;;6.68;3.80;;;;;;;;;;5029090;28;20037;-65
2022/08/09 03:21:49;;;;;;;5.25;3.45;;;;;;;;;;5031163;28;20508;-65
2022/08/09 03:24:16;;;;;;;7.50;3.55;;;;;;;;;;5026541;28;20822;-65
2022/08/09 03:26:42;;;;;;;5.55;3.38;;;;;;;;;;5028915;28;20120;-65
2022/08/09 03:29:09;;;;;;;5.60;3.47;;;;;;;;;;5019198;28;20087;-65
2022/08/09 03:31:36;;;;;;;6.78;4.00;;;;;;;;;;5021005;28;20029;-65
2022/08/09 03:34:02;;;;;;;6.15;3.60;;;;;;;;;;5018798;28;20033;-65
2022/08/09 03:36:27;;;;;;;7.55;3.70;;;;;;;;;;5022423;28;20061;-65
2022/08/09 03:38:54;;;;;;;6.75;3.45;;;;;;;;;;5027639;28;20118;-65
2022/08/09 03:41:19;;;;;;;7.53;3.80;;;;;;;;;;5028484;28;20395;-65
2022/08/09 03:43:45;;;;;;;9.63;3.60;;;;;;;;;;5029246;28;20506;-65
2022/08/09 03:46:11;;;;;;;9.07;4.13;;;;;;;;;;5028254;28;20046;-65
2022/08/09 03:48:37;;;;;;;9.30;4.15;;;;;;;;;;5023912;28;20037;-65
2022/08/09 03:51:06;;;;;;;5.82;3.22;;;;;;;;;;5014440;28;20045;-65
2022/08/09 03:53:33;;;;;;;7.93;3.58;;;;;;;;;;5021807;28;20055;-65
2022/08/09 03:55:59;;;;;;;5.70;3.72;;;;;;;;;;5026604;28;20049;-65
2022/08/09 03:58:24;;;;;;;6.88;3.70;;;;;;;;;;5022289;28;20384;-65
2022/08/09 04:00:50;;;;;;;5.80;3.58;;;;;;;;;;5020104;28;20045;-65
2022/08/09 04:03:16;;;;;;;7.72;3.95;;;;;;;;;;5012946;28;20045;-65
2022/08/09 04:05:43;;;;;;;4.80;3.35;;;;;;;;;;5018497;28;20099;-65
2022/08/09 04:08:08;;;;;;;7.65;3.63;;;;;;;;;;5013308;28;20029;-65
2022/08/09 04:10:33;;;;;;;7.25;3.90;;;;;;;;;;5027037;28;20084;-65
2022/08/09 04:12:59;;;;;;;5.55;3.80;;;;;;;;;;5015624;28;20034;-65
2022/08/09 04:15:25;;;;;;;7.75;3.88;;;;;;;;;;5019552;28;20033;-65
2022/08/09 04:17:50;;;;;;;8.30;4.10;;;;;;;;;;5023986;28;20030;-65
2022/08/09 04:20:16;;;;;;;7.38;3.90;;;;;;;;;;5017528;28;20038;-65
2022/08/09 04:22:44;;;;;;;8.10;3.78;;;;;;;;;;5024196;28;20037;-65
2022/08/09 04:25:10;;;;;;;8.13;3.78;;;;;;;;;;5017841;28;20041;-65
2022/08/09 04:27:40;;;;;;;5.80;3.70;;;;;;;;;;5017451;28;20038;-65
2022/08/09 04:30:14;;;;;;;5.03;3.55;;;;;;;;;;5034529;28;20087;-65
2022/08/09 04:32:40;;;;;;;6.90;3.88;;;;;;;;;;5027550;28;20040;-65
2022/08/09 04:35:08;;;;;;;5.97;3.80;;;;;;;;;;5034572;28;20025;-65
2022/08/09 04:37:34;;;;;;;7.40;3.65;;;;;;;;;;5025667;28;20506;-65
2022/08/09 04:39:59;;;;;;;7.85;3.53;;;;;;;;;;5030267;28;20045;-65
2022/08/09 04:42:28;;;;;;;9.32;4.35;;;;;;;;;;5023750;28;20533;-65
2022/08/09 04:44:57;;;;;;;7.90;3.70;;;;;;;;;;5027975;28;20072;-65
2022/08/09 04:47:23;;;;;;;11.32;3.95;;;;;;;;;;5023814;28;20045;-65
2022/08/09 04:49:49;;;;;;;5.25;3.88;;;;;;;;;;5024294;28;20036;-65
2022/08/09 04:52:15;;;;;;;8.23;4.07;;;;;;;;;;5025970;28;20041;-65
2022/08/09 04:54:40;;;;;;;7.68;3.90;;;;;;;;;;5023712;28;20052;-65
2022/08/09 04:57:06;;;;;;;6.40;3.90;;;;;;;;;;5024761;28;20041;-65
2022/08/09 04:59:31;;;;;;;6.43;3.65;;;;;;;;;;5021782;28;20043;-65
2022/08/09 05:01:56;;;;;;;7.53;3.85;;;;;;;;;;5025377;28;20071;-65
2022/08/09 05:04:22;;;;;;;7.15;3.80;;;;;;;;;;5024943;28;20030;-65
2022/08/09 05:06:47;;;;;;;6.25;3.92;;;;;;;;;;5028402;28;20026;-65
2022/08/09 05:09:12;;;;;;;6.18;4.13;;;;;;;;;;5028280;28;20044;-65
2022/08/09 05:11:38;;;;;;;6.90;4.03;;;;;;;;;;5026126;28;20042;-65
2022/08/09 05:14:03;;;;;;;9.23;3.95;;;;;;;;;;5025021;28;20041;-65
2022/08/09 05:16:28;;;;;;;8.07;4.15;;;;;;;;;;5026617;28;20029;-65
2022/08/09 05:18:54;;;;;;;6.53;3.92;;;;;;;;;;5029773;28;20040;-65
2022/08/09 05:21:20;;;;;;;5.78;3.53;;;;;;;;;;5040995;28;20652;-65
2022/08/09 05:23:45;;;;;;;7.43;4.15;;;;;;;;;;5025146;28;20034;-65
2022/08/09 05:26:10;;;;;;;6.38;3.55;;;;;;;;;;5025850;28;20566;-65
2022/08/09 05:28:36;;;;;;;9.60;4.28;;;;;;;;;;5026222;28;20079;-65
2022/08/09 05:31:01;;;;;;;7.95;3.83;;;;;;;;;;5025076;28;20034;-65
2022/08/09 05:33:27;;;;;;;9.35;4.40;;;;;;;;;;5025966;28;20051;-65
2022/08/09 05:35:52;;;;;;;6.70;4.43;;;;;;;;;;5032781;28;20060;-65
2022/08/09 05:38:17;;;;;;;6.03;4.10;;;;;;;;;;5027088;28;20080;-65
2022/08/09 05:40:43;;;;;;;11.05;3.60;;;;;;;;;;5025864;28;20119;-65
2022/08/09 05:43:08;;;;;;;6.10;3.63;;;;;;;;;;5022729;28;20124;-65
2022/08/09 05:45:34;;;;;;;7.78;4.53;;;;;;;;;;5025248;28;20038;-65
2022/08/09 05:47:59;;;;;;;8.40;4.10;;;;;;;;;;5018346;28;20117;-65
2022/08/09 05:50:25;;;;;;;8.30;4.03;;;;;;;;;;5020211;28;20041;-65
2022/08/09 05:52:51;;;;;;;9.50;4.18;;;;;;;;;;5025743;28;20091;-65
2022/08/09 05:55:17;;;;;;;6.72;4.30;;;;;;;;;;5026471;28;20072;-65
2022/08/09 05:57:42;;;;;;;6.95;3.95;;;;;;;;;;5026775;28;20037;-65
2022/08/09 06:00:09;;;;;;;6.65;4.15;;;;;;;;;;5027219;28;20144;-65
2022/08/09 06:02:34;;;;;;;9.68;5.03;;;;;;;;;;5025381;28;20033;-65
2022/08/09 06:05:01;;;;;;;6.70;3.78;;;;;;;;;;5021561;28;20459;-65
2022/08/09 06:07:28;;;;;;;8.85;4.00;;;;;;;;;;5025797;28;20051;-65
2022/08/09 06:09:53;;;;;;;5.72;3.90;;;;;;;;;;5029399;28;20037;-65
2022/08/09 06:12:19;;;;;;;8.70;4.18;;;;;;;;;;5034618;28;20033;-65
2022/08/09 06:14:44;;;;;;;7.57;4.30;;;;;;;;;;5024864;28;20041;-65
2022/08/09 06:17:10;;;;;;;7.28;4.25;;;;;;;;;;5030014;28;20033;-65
2022/08/09 06:19:36;;;;;;;9.20;3.85;;;;;;;;;;5032561;28;20101;-65
2022/08/09 06:22:01;;;;;;;11.85;4.40;;;;;;;;;;5026686;28;20141;-65
2022/08/09 06:24:27;;;;;;;7.85;4.50;;;;;;;;;;5027865;28;20141;-65
2022/08/09 06:26:52;;;;;;;12.32;4.35;;;;;;;;;;5029413;28;20037;-65
2022/08/09 06:29:17;;;;;;;7.40;4.63;;;;;;;;;;5035502;28;20040;-65
2022/08/09 06:31:43;;;;;;;9.20;4.43;;;;;;;;;;5028869;28;20034;-65
2022/08/09 06:34:08;;;;;;;8.23;4.15;;;;;;;;;;5023858;28;20033;-65
2022/08/09 06:36:34;;;;;;;9.60;4.07;;;;;;;;;;5029528;28;20124;-65
2022/08/09 06:38:59;;;;;;;5.57;4.05;;;;;;;;;;5028209;28;20060;-66
2022/08/09 06:41:24;;;;;;;9.70;4.35;;;;;;;;;;5027084;28;20045;-65
2022/08/09 06:43:50;;;;;;;8.23;4.35;;;;;;;;;;5033125;28;20030;-65
2022/08/09 06:46:16;;;;;;;9.68;4.50;;;;;;;;;;5020621;28;20049;-65
2022/08/09 06:48:42;;;;;;;8.63;4.03;;;;;;;;;;5031249;28;20069;-65
2022/08/09 06:51:10;;;;;;;7.85;4.32;;;;;;;;;;5028552;28;20044;-65
2022/08/09 06:53:36;;;;;;;9.18;4.63;;;;;;;;;;5024644;28;20060;-65
2022/08/09 06:56:02;;;;;;;10.63;4.47;;;;;;;;;;5028366;28;20534;-65
2022/08/09 06:58:28;;;;;;;7.18;4.22;;;;;;;;;;5031345;28;20029;-65
2022/08/09 07:00:54;;;;;;;7.97;4.43;;;;;;;;;;5028596;28;20033;-65
2022/08/09 07:03:21;;;;;;;9.88;4.97;;;;;;;;;;5027677;28;20029;-65
2022/08/09 07:05:46;;;;;;;7.82;4.45;;;;;;;;;;5028726;28;20044;-65
2022/08/09 07:08:12;;;;;;;9.00;4.25;;;;;;;;;;5028668;28;20411;-65
2022/08/09 07:10:37;;;;;;;8.27;4.63;;;;;;;;;;5030110;28;20033;-65
2022/08/09 07:13:02;;;;;;;13.75;5.13;;;;;;;;;;5026357;28;20406;-65
2022/08/09 07:15:28;;;;;;;10.70;5.18;;;;;;;;;;5025424;28;20166;-65
2022/08/09 07:17:53;;;;;;;8.82;4.60;;;;;;;;;;5025267;28;20037;-66
2022/08/09 07:20:19;;;;;;;8.30;4.45;;;;;;;;;;5022224;28;20049;-65
2022/08/09 07:22:45;;;;;;;9.60;5.13;;;;;;;;;;5022965;28;20037;-65
2022/08/09 07:25:10;;;;;;;14.38;5.18;;;;;;;;;;5016670;28;20026;-65
2022/08/09 07:27:39;;;;;;;9.98;4.72;;;;;;;;;;5028165;28;20052;-65
2022/08/09 07:30:04;;;;;;;7.78;4.88;;;;;;;;;;5039752;28;20082;-67
2022/08/09 07:32:30;;;;;;;8.45;4.97;;;;;;;;;;5028519;28;20132;-65
2022/08/09 07:34:56;;;;;;;9.05;4.32;;;;;;;;;;5026244;28;20513;-65
2022/08/09 07:37:21;;;;;;;9.68;4.70;;;;;;;;;;5019633;28;20075;-65
2022/08/09 07:39:46;;;;;;;10.77;4.80;;;;;;;;;;5028532;28;20037;-65
2022/08/09 07:42:12;;;;;;;11.32;4.57;;;;;;;;;;5024857;28;20041;-65
2022/08/09 07:44:39;;;;;;;10.48;4.80;;;;;;;;;;5023243;28;20041;-65
2022/08/09 07:47:04;;;;;;;7.05;4.32;;;;;;;;;;5026157;28;20032;-65
2022/08/09 07:49:29;;;;;;;6.82;3.85;;;;;;;;;;5024730;28;20021;-65
2022/08/09 07:51:55;;;;;;;9.48;4.55;;;;;;;;;;5024140;28;20536;-65
2022/08/09 07:54:20;;;;;;;6.60;4.35;;;;;;;;;;5025240;28;21210;-65
2022/08/09 07:56:45;;;;;;;5.95;3.83;;;;;;;;;;5029100;28;20419;-65
2022/08/09 07:59:11;;;;;;;7.93;4.53;;;;;;;;;;5021689;28;20029;-65
2022/08/09 08:01:36;;;;;;;9.70;4.38;;;;;;;;;;5020912;28;20056;-65
2022/08/09 08:04:02;;;;;;;9.35;4.30;;;;;;;;;;5020223;28;20522;-65
2022/08/09 08:06:29;;;;;;;5.45;3.65;;;;;;;;;;5023271;28;20038;-65
2022/08/09 08:08:54;;;;;;;5.47;3.75;;;;;;;;;;5025513;28;20034;-65
2022/08/09 08:11:19;;;;;;;5.97;4.00;;;;;;;;;;5017660;28;20038;-65
2022/08/09 08:13:45;;;;;;;9.48;4.05;;;;;;;;;;5023253;28;20022;-65
2022/08/09 08:16:10;;;;;;;6.07;4.18;;;;;;;;;;5023496;28;20120;-65
2022/08/09 08:18:35;;;;;;;7.68;3.80;;;;;;;;;;5023291;28;20545;-66
2022/08/09 08:21:01;;;;;;;5.18;3.25;;;;;;;;;;5016202;28;20077;-65
2022/08/09 08:23:26;;;;;;;5.88;3.90;;;;;;;;;;5015104;28;20049;-66
2022/08/09 08:25:51;;;;;;;6.72;3.47;;;;;;;;;;5027910;28;20032;-65
2022/08/09 08:28:18;;;;;;;6.55;4.05;;;;;;;;;;5016590;28;20033;-65
2022/08/09 08:30:44;;;;;;;8.25;4.10;;;;;;;;;;5024192;28;20036;-65
2022/08/09 08:33:09;;;;;;;5.82;3.78;;;;;;;;;;5026509;28;20029;-65
2022/08/09 08:35:35;;;;;;;6.30;3.55;;;;;;;;;;5024931;28;20063;-65
2022/08/09 08:38:00;;;;;;;6.50;3.50;;;;;;;;;;5025694;28;20470;-65
2022/08/09 08:40:25;;;;;;;9.68;3.55;;;;;;;;;;5023336;28;20048;-66
2022/08/09 08:42:52;;;;;;;5.32;2.97;;;;;;;;;;5024041;28;20034;-65
2022/08/09 08:45:26;;;;;;;6.05;3.95;;;;;;;;;;5023325;28;20034;-65
2022/08/09 08:47:51;;;;;;;4.47;2.92;;;;;;;;;;5008323;28;20052;-65
2022/08/09 08:50:18;;;;;;;3.83;2.60;;;;;;;;;;5011604;28;20121;-65
2022/08/09 08:52:44;;;;;;;4.80;3.30;;;;;;;;;;5015392;28;20028;-65
2022/08/09 08:55:10;;;;;;;4.20;2.70;;;;;;;;;;5017620;28;20042;-65
2022/08/09 08:57:36;;;;;;;4.70;2.80;;;;;;;;;;5013985;28;20029;-65
2022/08/09 09:00:06;;;;;;;6.05;2.63;;;;;;;;;;5015976;28;20103;-65
2022/08/09 09:02:32;;;;;;;4.65;2.92;;;;;;;;;;5013543;28;20033;-65
2022/08/09 09:04:59;;;;;;;4.13;2.85;;;;;;;;;;5021405;28;20037;-65
2022/08/09 09:07:27;;;;;;;7.85;2.78;;;;;;;;;;5027026;28;20049;-65
2022/08/09 09:09:54;;;;;;;5.25;2.92;;;;;;;;;;5009119;28;20080;-63
2022/08/09 09:12:25;;;;;;;4.75;2.55;;;;;;;;;;5016006;28;20072;-63
2022/08/09 09:14:51;;;;;;;3.00;2.45;;;;;;;;;;5014979;28;20083;-63
2022/08/09 09:17:17;;;;;;;7.43;2.95;;;;;;;;;;5020222;28;20501;-63
2022/08/09 09:19:43;;;;;;;7.43;2.80;;;;;;;;;;5021775;28;20603;-63
2022/08/09 09:22:12;;;;;;;3.85;2.50;;;;;;;;;;5027645;28;20107;-63
2022/08/09 09:24:44;;;;;;;5.13;2.72;;;;;;;;;;5028048;28;20048;-64
2022/08/09 09:27:13;;;;;;;5.80;3.03;;;;;;;;;;5029713;28;20038;-64
2022/08/09 09:29:41;;;;;;;4.45;2.72;;;;;;;;;;5033317;28;20071;-64
2022/08/09 09:32:07;;;;;;;5.00;2.28;;;;;;;;;;5022824;28;20025;-63
2022/08/09 09:34:32;;;;;;;5.95;2.75;;;;;;;;;;5023040;28;20029;-63
2022/08/09 09:36:59;;;;;;;5.65;2.45;;;;;;;;;;5025515;28;20541;-63
2022/08/09 09:39:26;;;;;;;5.30;2.80;;;;;;;;;;5022187;28;20060;-63
2022/08/09 09:41:52;;;;;;;4.43;2.72;;;;;;;;;;5027020;28;20138;-63
2022/08/09 09:44:27;;;;;;;3.13;2.63;;;;;;;;;;5019830;28;20523;-65
2022/08/09 09:47:03;;;;;;;4.40;2.80;;;;;;;;;;5021102;28;21229;-65
2022/08/09 09:49:29;;;;;;;5.93;2.58;;;;;;;;;;5025947;28;20044;-66
2022/08/09 09:52:03;;;;;;;7.50;2.70;;;;;;;;;;5028518;28;20042;-66
2022/08/09 09:54:42;;;;;;;4.65;2.50;;;;;;;;;;5028006;28;20054;-66
2022/08/09 09:57:15;;;;;;;5.55;2.75;;;;;;;;;;5029374;28;20049;-66
2022/08/09 09:59:41;;;;;;;4.25;2.47;;;;;;;;;;5026887;28;20037;-66
2022/08/09 10:02:08;;;;;;;3.92;2.60;;;;;;;;;;5029768;28;20026;-66
2022/08/09 10:04:33;;;;;;;4.20;2.50;;;;;;;;;;5028602;28;20075;-66
2022/08/09 10:06:59;;;;;;;3.10;2.45;;;;;;;;;;5032169;28;20025;-66
2022/08/09 10:09:24;;;;;;;4.28;3.00;;;;;;;;;;5030352;28;20082;-66
2022/08/09 10:11:57;;;;;;;5.78;2.45;;;;;;;;;;5028680;28;20030;-66
2022/08/09 10:14:25;;;;;;;6.50;2.58;;;;;;;;;;5037800;28;20040;-66
2022/08/09 10:16:50;;;;;;;5.95;2.63;;;;;;;;;;5041632;28;20021;-66
2022/08/09 10:19:16;;;;;;;4.10;2.55;;;;;;;;;;5033729;28;20048;-66
2022/08/09 10:21:47;;;;;;;5.50;2.60;;;;;;;;;;5025020;28;20048;-66
2022/08/09 10:24:14;;;;;;;7.07;2.70;;;;;;;;;;5018785;28;20037;-66
2022/08/09 10:26:39;;;;;;;5.40;2.75;;;;;;;;;;5024868;28;20075;-66
2022/08/09 10:29:05;;;;;;;4.20;2.78;;;;;;;;;;5023339;28;20033;-66
2022/08/09 10:31:30;;;;;;;4.50;2.60;;;;;;;;;;5025462;28;20034;-66
2022/08/09 10:33:56;;;;;;;8.13;2.97;;;;;;;;;;5024423;28;20026;-66
2022/08/09 10:36:22;;;;;;;6.25;3.70;;;;;;;;;;5020951;28;20076;-66
2022/08/09 10:38:47;;;;;;;4.28;3.20;;;;;;;;;;5021457;28;20077;-66
2022/08/09 10:41:14;;;;;;;7.60;3.05;;;;;;;;;;5022739;28;20029;-66
2022/08/09 10:43:48;;;;;;;6.15;3.15;;;;;;;;;;5020520;28;20026;-66
2022/08/09 10:46:22;;;;;;;6.63;3.00;;;;;;;;;;5024836;28;20453;-66
2022/08/09 10:48:57;;;;;;;4.05;2.85;;;;;;;;;;5023880;28;20038;-66
2022/08/09 10:51:44;;;;;;;4.65;2.85;;;;;;;;;;5023212;28;20038;-66
2022/08/09 10:54:11;;;;;;;8.10;2.65;;;;;;;;;;5022217;28;20422;-66
2022/08/09 10:56:38;;;;;;;5.32;2.90;;;;;;;;;;5020863;28;20140;-66
2022/08/09 10:59:22;;;;;;;4.10;2.85;;;;;;;;;;5022146;28;20044;-66
2022/08/09 11:01:47;;;;;;;;;;;;;;;;;;5021987;28;20128;-66
2022/08/09 11:04:14;;;;;;;3.80;2.75;;;;;;;;;;5025636;28;20425;-66
2022/08/09 11:06:41;;;;;;;4.93;2.88;;;;;;;;;;5023500;28;20044;-66
2022/08/09 11:09:07;;;;;;;6.47;2.75;;;;;;;;;;5025199;28;20072;-66
2022/08/09 11:11:58;;;;;;;4.45;2.63;;;;;;;;;;5020636;28;20431;-66
2022/08/09 11:14:30;;;;;;;6.28;3.03;;;;;;;;;;5020797;28;20091;-66
2022/08/09 11:16:56;;;;;;;6.67;3.33;;;;;;;;;;5022208;28;20145;-66
2022/08/09 11:19:49;;;;;;;5.50;2.90;;;;;;;;;;5019180;28;20487;-66
2022/08/09 11:22:18;;;;;;;3.55;2.55;;;;;;;;;;5025634;28;20033;-66
2022/08/09 11:25:03;;;;;;;5.60;3.10;;;;;;;;;;5024154;28;20454;-66
2022/08/09 11:27:35;;;;;;;4.45;3.17;;;;;;;;;;5022987;28;20049;-66
2022/08/09 11:30:02;;;;;;;4.00;3.00;;;;;;;;;;5019656;28;20036;-66
2022/08/09 11:33:03;;;;;;;8.50;3.20;;;;;;;;;;5020829;28;20045;-66
2022/08/09 11:35:44;;;;;;;6.35;3.10;;;;;;;;;;5020152;28;20589;-66
2022/08/09 11:38:22;;;;;;;8.70;2.95;;;;;;;;;;5024987;28;20033;-66
2022/08/09 11:40:47;;;;;;;5.40;3.45;;;;;;;;;;5030896;28;20491;-66
2022/08/09 11:43:15;;;;;;;5.68;2.90;;;;;;;;;;5026188;28;20048;-66
2022/08/09 11:45:53;;;;;;;4.05;2.75;;;;;;;;;;5022175;28;20487;-66
2022/08/09 11:48:23;;;;;;;4.72;3.00;;;;;;;;;;5018818;28;20642;-66
2022/08/09 11:50:57;;;;;;;5.30;3.30;;;;;;;;;;5021802;28;20040;-66
2022/08/09 11:53:25;;;;;;;4.93;3.33;;;;;;;;;;5034915;28;20049;-66
2022/08/09 11:55:54;;;;;;;4.05;3.03;;;;;;;;;;5021800;28;20136;-66
2022/08/09 11:58:20;;;;;;;3.78;2.80;;;;;;;;;;5017684;28;20029;-66
2022/08/09 12:01:00;;;;;;;5.00;3.10;;;;;;;;;;5021207;28;20086;-66
2022/08/09 12:03:27;;;;;;;6.47;3.10;;;;;;;;;;5021590;28;20037;-66
2022/08/09 12:05:55;;;;;;;13.40;2.90;;;;;;;;;;5027257;28;20128;-66
2022/08/09 12:08:22;;;;;;;4.70;3.03;;;;;;;;;;5024424;28;20052;-66
2022/08/09 12:10:56;;;;;;;6.45;2.97;;;;;;;;;;5024726;28;20029;-66
2022/08/09 12:13:41;;;;;;;5.25;2.55;;;;;;;;;;5023750;28;20088;-66
2022/08/09 12:16:13;;;;;;;3.60;2.60;;;;;;;;;;5027666;28;20145;-66
2022/08/09 12:18:43;;;;;;;4.82;2.58;;;;;;;;;;5028772;28;20068;-66
2022/08/09 12:21:09;;;;;;;5.47;2.92;;;;;;;;;;5036601;28;20383;-66
2022/08/09 12:23:45;;;;;;;5.03;2.50;;;;;;;;;;5027928;28;20064;-66
2022/08/09 12:26:11;;;;;;;5.07;2.60;;;;;;;;;;5032327;28;20025;-66
2022/08/09 12:28:40;;;;;;;7.13;2.90;;;;;;;;;;5025282;28;20034;-66
2022/08/09 12:31:26;;;;;;;3.45;2.45;;;;;;;;;;5035053;28;20033;-66
2022/08/09 12:33:52;;;;;;;3.83;3.00;;;;;;;;;;5028046;28;20034;-66
2022/08/09 12:36:18;;;;;;;3.45;2.60;;;;;;;;;;5019931;28;20056;-66
2022/08/09 12:38:44;;;;;;;3.55;2.33;;;;;;;;;;5024523;28;20029;-66
2022/08/09 12:41:10;;;;;;;3.97;2.55;;;;;;;;;;5031829;28;20033;-66
2022/08/09 12:43:36;;;;;;;4.38;2.72;;;;;;;;;;5029418;28;20021;-66
2022/08/09 12:46:01;;;;;;;5.35;2.50;;;;;;;;;;5018231;28;20037;-66
2022/08/09 12:48:28;;;;;;;4.50;2.40;;;;;;;;;;5012407;28;20044;-65
2022/08/09 12:50:55;;;;;;;5.13;2.38;;;;;;;;;;5023244;28;20846;-66
2022/08/09 12:53:28;;;;;;;7.43;2.72;;;;;;;;;;5029202;28;20847;-66
2022/08/09 12:56:23;;;;;;;3.15;2.47;;;;;;;;;;5024790;28;20045;-66
2022/08/09 12:59:15;;;;;;;4.13;2.47;;;;;;;;;;5018289;28;20049;-66
2022/08/09 13:01:57;;;;;;;3.75;2.60;;;;;;;;;;5022136;28;20048;-66
2022/08/09 13:04:23;;;;;;;7.32;2.63;;;;;;;;;;5027925;28;20042;-66
2022/08/09 13:06:48;;;;;;;7.75;2.63;;;;;;;;;;5021766;28;20047;-66
2022/08/09 13:09:13;;;;;;;4.70;2.20;;;;;;;;;;5022038;28;20045;-66
2022/08/09 13:11:41;;;;;;;3.15;2.47;;;;;;;;;;5026000;28;20410;-66
2022/08/09 13:14:13;;;;;;;8.05;2.55;;;;;;;;;;5025902;28;20037;-66
2022/08/09 13:16:46;;;;;;;3.58;2.30;;;;;;;;;;5024738;28;20021;-66
2022/08/09 13:19:34;;;;;;;4.15;2.50;;;;;;;;;;5023201;28;20041;-66
2022/08/09 13:22:06;;;;;;;4.25;2.63;;;;;;;;;;5019739;28;20577;-66
2022/08/09 13:24:31;;;;;;;2.50;2.22;;;;;;;;;;5021749;28;20052;-66
2022/08/09 13:26:58;;;;;;;6.40;2.40;;;;;;;;;;5024450;28;20029;-66
2022/08/09 13:29:24;;;;;;;4.97;2.70;;;;;;;;;;5028326;28;20044;-66
2022/08/09 13:31:59;;;;;;;7.43;2.70;;;;;;;;;;5036529;28;20021;-66
2022/08/09 13:34:26;;;;;;;4.55;2.75;;;;;;;;;;5029391;28;20120;-66
2022/08/09 13:36:54;;;;;;;3.28;2.35;;;;;;;;;;5028590;28;20044;-65
2022/08/09 13:39:20;;;;;;;2.72;2.30;;;;;;;;;;5025093;28;20518;-66
2022/08/09 13:41:45;;;;;;;3.22;2.42;;;;;;;;;;5023332;28;20058;-66
2022/08/09 13:44:11;;;;;;;3.63;2.58;;;;;;;;;;5021659;28;20021;-67
2022/08/09 13:46:36;;;;;;;4.90;2.67;;;;;;;;;;5029924;28;20021;-66
2022/08/09 13:49:01;;;;;;;2.75;2.28;;;;;;;;;;5027382;28;20839;-66
2022/08/09 13:51:27;;;;;;;3.30;2.42;;;;;;;;;;5026083;28;20176;-66
2022/08/09 13:53:52;;;;;;;3.15;2.58;;;;;;;;;;5026639;28;20475;-66
2022/08/09 13:56:17;;;;;;;2.78;2.30;;;;;;;;;;5026339;28;20045;-66
2022/08/09 13:58:43;;;;;;;5.40;2.30;;;;;;;;;;5021336;28;20075;-66
2022/08/09 14:01:08;;;;;;;5.45;2.28;;;;;;;;;;5026440;28;20066;-66
2022/08/09 14:03:33;;;;;;;2.28;2.08;;;;;;;;;;5023263;28;20117;-66
2022/08/09 14:05:59;;;;;;;2.22;1.90;;;;;;;;;;5021621;28;20060;-65
2022/08/09 14:08:25;;;;;;;5.05;2.10;;;;;;;;;;5019950;28;20117;-66
2022/08/09 14:10:50;;;;;;;3.53;2.20;;;;;;;;;;5020056;28;20026;-66
2022/08/09 14:13:16;;;;;;;2.22;1.98;;;;;;;;;;5019951;28;20132;-66
2022/08/09 14:15:41;;;;;;;2.58;1.90;;;;;;;;;;5020963;28;20047;-65
2022/08/09 14:18:07;;;;;;;2.97;2.08;;;;;;;;;;5015346;28;20033;-66
2022/08/09 14:20:32;;;;;;;3.15;2.25;;;;;;;;;;5024592;28;20033;-66
2022/08/09 14:22:58;;;;;;;3.50;2.15;;;;;;;;;;5020134;28;20104;-66
2022/08/09 14:25:23;;;;;;;3.58;2.20;;;;;;;;;;5023065;28;20013;-66
2022/08/09 14:27:48;;;;;;;5.20;2.00;;;;;;;;;;5025638;28;20059;-66
2022/08/09 14:30:14;;;;;;;3.28;2.00;;;;;;;;;;5029504;28;20029;-66
2022/08/09 14:32:39;;;;;;;2.38;2.00;;;;;;;;;;5024050;28;20029;-66
2022/08/09 14:35:05;;;;;;;2.20;2.00;;;;;;;;;;5021265;28;20545;-66
2022/08/09 14:37:31;;;;;;;3.33;2.17;;;;;;;;;;5011010;28;20032;-66
2022/08/09 14:39:56;;;;;;;2.70;2.35;;;;;;;;;;5032556;28;20038;-66
2022/08/09 14:42:22;;;;;;;3.45;2.00;;;;;;;;;;5040694;28;20033;-66
2022/08/09 14:44:47;;;;;;;2.63;1.92;;;;;;;;;;5030330;28;20030;-66
2022/08/09 14:47:13;;;;;;;4.43;2.20;;;;;;;;;;5030909;28;20581;-66